Du har inga inställningar för hoppväder.nu

Hoppväder.nu

Senast uppdaterat 04:14

UTC-tid

2020-11-26 kl. 03:14


Sol och måne

Solen går upp 8:24 och går ner 15:00 (beräknade cirkatider)
Nästa fullmåne blir om 4 dagar (2020-11-30)

METAR

ESOW (Västerås)
(24 minuter sedan)
ESOW 260250Z AUTO 22004KT 190V270 7000 -DZ BKN006/// OVC031/// 08/07 Q1008=



ESSA (Arlanda)
(24 minuter sedan)
ESSA 260250Z 24008KT 5000 -RA BKN005 07/07 Q1007 RWY 01R DAMP 51-100 PCT BA GOOD RWY 08 DAMP 51-100 PCT BA GOOD TEMPO 4000 RADZ BKN007=



ESKN (Skavsta)
(24 minuter sedan)
ESKN 260250Z 23009KT 9999 BKN011 08/06 Q1008=



ESOE (Örebro)
(24 minuter sedan)
ESOE 260250Z AUTO 22008KT 190V260 9999 -RA SCT022/// OVC051/// 09/07 Q1008 RESHUP RERA REDZ=



ESSD (Borlänge)
(24 minuter sedan)
ESSD 260250Z AUTO 25006KT 9999 OVC140/// 06/05 Q1006=



TAF

ESOW (Västerås)
ESOW



ESSA (Arlanda)
(224 minuter sedan)
ESSA 252330Z 2600/2624 23012KT 9999 BKN017 BECMG 2600/2602 BKN012 TEMPO 2600/2607 4000 RADZ BR BKN008 BECMG 2607/2610 33010KT FEW020=



ESKN (Skavsta)
(57 minuter sedan)
ESKN AMD 260217Z 2602/2624 23008KT 9999 BKN030 PROB40 2602/2608 4000 RADZ BKN009=



ESOE (Örebro)
(44 minuter sedan)
ESOE 260230Z 2603/2609 24006KT 9000 -RADZ BKN006 TEMPO 2603/2605 4000 RA BR BKN012 BECMG 2605/2607 NSC=



ESSD (Borlänge)
ESSD





Kodnycklar till TAF och METAR






LHP

(Västerås är område se32e i Delområde 4)

Prognos är inte uppdaterad






Preliminär prognos